Whiteclay, Nebraska
Current Conditions -  °F | °C
As of 1:52 PM on Friday 26 Dec 2014 (Local Time) from KIEN Reporting Station
Overcast Overcast  
Wind Chill:   Ceiling: 2300
Heat Index: 19°   Visibility: 10mi
Dew Point: 12°   Wind: 9mph
Humidity: 74%   Direction: 20°NNE
Pressure: 30.05"   Gusts: NA
Location:  43°N, 102.56°W
Report Text: KIEN 262052Z AUTO 02008KT 10SM OVC023 M07/M11 A3005 RMK AO2 SLP224 60000 T10721111 55011
Loading
Personal Weather Stations






























Interactive Weather Map New forecast layout! Learn more

10-Day Weather Forecast

Advertisements
Track Severe Weather on mobile